createdAt,value
2023-01-13T00:03:43.658Z,101192.47
2023-01-13T00:08:56.311Z,101153.25
2023-01-13T00:13:49.776Z,101179.13
2023-01-13T00:18:43.982Z,101152.66
2023-01-13T00:23:37.090Z,101134.09
2023-01-13T00:28:30.625Z,101112.03
2023-01-13T00:33:24.164Z,101095.31
2023-01-13T00:38:17.739Z,101123.09
2023-01-13T00:43:23.199Z,101119.78
2023-01-13T00:48:18.671Z,101147.38
2023-01-13T00:53:11.811Z,101124.16
2023-01-13T00:58:06.014Z,101122.53
2023-01-13T01:02:59.521Z,101124.66
2023-01-13T01:07:53.938Z,101158.75
2023-01-13T01:12:47.986Z,101155.44
2023-01-13T01:17:41.909Z,101172.25
2023-01-13T01:22:35.265Z,101159.81
2023-01-13T01:27:28.927Z,101163.28
2023-01-13T01:32:22.433Z,101141.63
2023-01-13T01:37:16.689Z,101151.03
2023-01-13T01:42:37.542Z,101126.91
2023-01-13T01:47:32.795Z,101113.47
2023-01-13T01:52:34.075Z,101133.28
2023-01-13T01:57:50.393Z,101084.97
2023-01-13T02:02:47.549Z,101112.16
2023-01-13T02:07:44.236Z,101077.31
2023-01-13T02:12:39.248Z,101078.97
2023-01-13T02:17:51.943Z,101095.28
2023-01-13T02:23:36.275Z,101082.09
2023-01-13T02:29:18.607Z,101073.19
2023-01-13T02:34:15.343Z,101032.75
2023-01-13T02:39:16.846Z,101036.78
2023-01-13T02:44:12.858Z,101042.28
2023-01-13T02:49:11.801Z,101036.97
2023-01-13T02:54:16.864Z,101002.72
2023-01-13T02:59:11.901Z,101025.38
2023-01-13T03:04:17.100Z,101029.13
2023-01-13T03:09:10.412Z,101014.81
2023-01-13T03:14:41.153Z,101019.38
2023-01-13T03:19:45.696Z,100999.94
2023-01-13T03:25:08.977Z,100961.41
2023-01-13T03:30:20.996Z,101015.19
2023-01-13T03:35:39.430Z,101007.06
2023-01-13T03:40:41.039Z,100985.94
2023-01-13T03:45:40.861Z,101025.53
2023-01-13T03:50:42.201Z,101020.94
2023-01-13T03:55:39.687Z,100997.00
2023-01-13T04:00:46.057Z,101023.72
2023-01-13T04:05:48.002Z,101025.69
2023-01-13T04:10:54.373Z,101004.44
2023-01-13T04:15:49.464Z,100995.44
2023-01-13T04:20:44.241Z,101012.34
2023-01-13T04:25:41.279Z,101002.28
2023-01-13T04:30:34.526Z,101017.34
2023-01-13T04:35:27.980Z,100996.38
2023-01-13T04:40:21.831Z,101020.59
2023-01-13T04:45:15.542Z,101012.91
2023-01-13T04:50:12.478Z,101003.84
2023-01-13T04:55:07.483Z,101014.47
2023-01-13T05:00:00.702Z,101056.59
2023-01-13T05:04:54.848Z,101032.59
2023-01-13T05:09:51.107Z,101063.63
2023-01-13T05:15:03.425Z,101043.09
2023-01-13T05:19:57.480Z,101043.19
2023-01-13T05:25:09.177Z,101064.28
2023-01-13T05:30:04.092Z,101064.31
2023-01-13T05:34:57.448Z,101032.13
2023-01-13T05:40:09.529Z,101053.50
2023-01-13T05:45:03.811Z,101081.72
2023-01-13T05:49:57.233Z,101074.81
2023-01-13T05:54:51.125Z,101089.19
2023-01-13T05:59:45.294Z,101088.59
2023-01-13T06:04:38.183Z,101072.09
2023-01-13T06:09:31.533Z,101048.13
2023-01-13T06:14:24.365Z,101058.69
2023-01-13T06:19:18.412Z,101076.41
2023-01-13T06:24:12.310Z,101070.22
2023-01-13T06:29:05.941Z,101101.56
2023-01-13T06:34:05.321Z,101086.38
2023-01-13T06:39:02.480Z,101098.34
2023-01-13T06:43:55.803Z,101078.66
2023-01-13T06:48:49.919Z,101091.50
2023-01-13T06:53:43.987Z,101075.31
2023-01-13T06:58:37.351Z,101087.22
2023-01-13T07:03:31.173Z,101097.16
2023-01-13T07:08:26.005Z,101089.44
2023-01-13T07:13:37.670Z,101083.91
2023-01-13T07:18:32.683Z,101094.50
2023-01-13T07:23:28.713Z,101102.25
2023-01-13T07:28:22.317Z,101056.94
2023-01-13T07:33:16.810Z,101081.31
2023-01-13T07:38:10.921Z,101085.41
2023-01-13T07:43:22.516Z,101051.22
2023-01-13T07:48:15.672Z,101067.38
2023-01-13T07:53:08.724Z,101099.03
2023-01-13T07:58:02.409Z,101100.03
2023-01-13T08:02:55.647Z,101074.66
2023-01-13T08:07:49.260Z,101104.84
2023-01-13T08:13:01.329Z,101076.94
2023-01-13T08:17:54.857Z,101078.66
2023-01-13T08:22:48.588Z,101113.66
2023-01-13T08:27:42.084Z,101074.75
2023-01-13T08:32:36.344Z,101102.38
2023-01-13T08:37:30.135Z,101100.56
2023-01-13T08:42:24.000Z,101082.69
2023-01-13T08:47:17.263Z,101087.50
2023-01-13T08:52:10.579Z,101098.84
2023-01-13T08:57:03.909Z,101075.59
2023-01-13T09:01:57.481Z,101093.53
2023-01-13T09:06:50.695Z,101094.50
2023-01-13T09:12:05.357Z,101090.88
2023-01-13T09:16:59.204Z,101093.63
2023-01-13T09:21:53.323Z,101089.19
2023-01-13T09:26:47.015Z,101104.16
2023-01-13T09:31:41.271Z,101075.59
2023-01-13T09:36:35.536Z,101089.09
2023-01-13T09:41:50.221Z,101067.78
2023-01-13T09:46:53.015Z,101063.63
2023-01-13T09:52:08.036Z,101070.28
2023-01-13T09:57:01.941Z,101096.19
2023-01-13T10:02:03.338Z,101054.91
2023-01-13T10:07:02.157Z,101080.28
2023-01-13T10:12:17.524Z,101069.66
2023-01-13T10:17:39.745Z,101075.94
2023-01-13T10:22:49.938Z,101070.63
2023-01-13T10:28:04.647Z,101073.34
2023-01-13T10:33:28.769Z,101066.19
2023-01-13T10:38:45.618Z,101050.25
2023-01-13T10:43:39.858Z,101028.72
2023-01-13T10:48:44.066Z,101042.41
2023-01-13T10:53:47.008Z,101052.25
2023-01-13T10:59:18.908Z,101041.47
2023-01-13T11:04:54.773Z,101030.94
2023-01-13T11:09:48.791Z,101014.09
2023-01-13T11:14:45.800Z,100997.84
2023-01-13T11:19:44.221Z,100990.66
2023-01-13T11:24:48.395Z,100982.25
2023-01-13T11:30:00.281Z,100957.38
2023-01-13T11:35:00.172Z,100969.00
2023-01-13T11:40:04.361Z,100971.75
2023-01-13T11:45:03.690Z,100976.13
2023-01-13T11:49:57.675Z,100966.34
2023-01-13T11:55:01.194Z,100955.84
2023-01-13T12:00:21.233Z,100925.09
2023-01-13T12:05:30.074Z,100962.75
2023-01-13T12:10:36.021Z,100947.78
2023-01-13T12:16:00.256Z,100953.72
2023-01-13T12:21:06.330Z,100970.72
2023-01-13T12:26:07.632Z,100969.94
2023-01-13T12:31:03.250Z,100959.88
2023-01-13T12:36:25.779Z,100968.22
2023-01-13T12:41:37.467Z,100963.69
2023-01-13T12:46:30.426Z,100979.50
2023-01-13T12:51:41.013Z,100976.97
2023-01-13T12:56:42.737Z,100950.53
2023-01-13T13:01:38.010Z,100924.56
2023-01-13T13:06:32.282Z,100945.25
2023-01-13T13:12:03.605Z,100913.09
2023-01-13T13:16:57.692Z,100918.50
2023-01-13T13:22:12.253Z,100924.69
2023-01-13T13:27:19.292Z,100896.56
2023-01-13T13:32:26.887Z,100898.19
2023-01-13T13:38:17.173Z,100903.47
2023-01-13T13:43:32.965Z,100909.63
2023-01-13T13:48:34.347Z,100878.91
2023-01-13T13:53:32.308Z,100901.59
2023-01-13T13:58:26.785Z,100886.53
2023-01-13T14:03:29.837Z,100866.91
2023-01-13T14:08:24.020Z,100866.69
2023-01-13T14:13:21.613Z,100844.09
2023-01-13T14:18:22.568Z,100868.72
2023-01-13T14:23:20.738Z,100852.97
2023-01-13T14:28:13.947Z,100878.56
2023-01-13T14:33:27.069Z,100870.44
2023-01-13T14:38:40.294Z,100870.44
2023-01-13T14:43:34.185Z,100895.25
2023-01-13T14:48:36.589Z,100911.81
2023-01-13T14:54:00.044Z,100939.47
2023-01-13T14:59:03.397Z,100953.59
2023-01-13T15:04:18.042Z,100951.88
2023-01-13T15:09:14.578Z,100925.03
2023-01-13T15:14:12.019Z,100952.66
2023-01-13T15:19:05.380Z,100969.50
2023-01-13T15:24:00.616Z,100931.38
2023-01-13T15:28:56.236Z,100964.38
2023-01-13T15:33:49.970Z,100976.84
2023-01-13T15:38:43.064Z,100965.31
2023-01-13T15:43:55.232Z,100935.75
2023-01-13T15:48:53.079Z,100921.81
2023-01-13T15:53:48.334Z,100924.91
2023-01-13T15:58:42.500Z,100953.19
2023-01-13T16:03:36.316Z,100954.81
2023-01-13T16:08:31.795Z,100945.56
2023-01-13T16:13:25.305Z,100904.91
2023-01-13T16:18:22.792Z,100903.28
2023-01-13T16:23:16.777Z,100945.03
2023-01-13T16:28:24.794Z,100942.38
2023-01-13T16:33:18.132Z,100953.97
2023-01-13T16:38:18.760Z,100966.09
2023-01-13T16:43:15.853Z,100952.06
2023-01-13T16:48:20.191Z,100962.75
2023-01-13T16:53:13.265Z,100953.88
2023-01-13T16:58:08.005Z,100960.94
2023-01-13T17:03:03.369Z,100992.75
2023-01-13T17:07:57.797Z,100976.44
2023-01-13T17:12:50.961Z,100994.47
2023-01-13T17:17:48.201Z,100985.69
2023-01-13T17:22:45.653Z,100996.56
2023-01-13T17:27:41.859Z,101006.91
2023-01-13T17:32:35.884Z,101002.53
2023-01-13T17:37:30.058Z,100970.75
2023-01-13T17:42:24.121Z,100990.84
2023-01-13T17:47:18.596Z,101021.53
2023-01-13T17:52:12.409Z,101017.09
2023-01-13T17:57:05.625Z,100988.97
2023-01-13T18:02:00.171Z,101014.88
2023-01-13T18:06:53.847Z,100996.31
2023-01-13T18:11:47.489Z,101016.59
2023-01-13T18:16:41.312Z,101015.56
2023-01-13T18:21:52.504Z,101012.59
2023-01-13T18:27:04.006Z,101037.44
2023-01-13T18:31:58.183Z,101047.47
2023-01-13T18:36:50.991Z,101051.13
2023-01-13T18:42:02.571Z,101061.66
2023-01-13T18:46:55.675Z,101066.69
2023-01-13T18:51:50.041Z,101087.56
2023-01-13T18:56:44.104Z,101078.13
2023-01-13T19:01:38.485Z,101078.50
2023-01-13T19:06:33.871Z,101087.56
2023-01-13T19:11:27.491Z,101090.47
2023-01-13T19:16:24.619Z,101089.34
2023-01-13T19:21:18.571Z,101108.56
2023-01-13T19:26:13.154Z,101105.16
2023-01-13T19:31:07.783Z,101122.72
2023-01-13T19:36:02.069Z,101104.91
2023-01-13T19:41:03.952Z,101107.56
2023-01-13T19:45:57.708Z,101102.97
2023-01-13T19:50:50.963Z,101100.22
2023-01-13T19:55:46.476Z,101108.06
2023-01-13T20:00:47.557Z,101099.78
2023-01-13T20:05:40.983Z,101121.16
2023-01-13T20:10:34.877Z,101103.91
2023-01-13T20:15:29.104Z,101120.66
2023-01-13T20:20:22.604Z,101120.91
2023-01-13T20:25:18.065Z,101130.06
2023-01-13T20:30:14.689Z,101134.28
2023-01-13T20:35:26.990Z,101123.31
2023-01-13T20:40:21.053Z,101113.28
2023-01-13T20:45:21.590Z,101116.13
2023-01-13T20:50:17.381Z,101125.19
2023-01-13T20:55:11.103Z,101105.69
2023-01-13T21:00:05.807Z,101111.34
2023-01-13T21:04:59.942Z,101099.19
2023-01-13T21:09:53.583Z,101117.22
2023-01-13T21:15:04.553Z,101128.97
2023-01-13T21:19:58.586Z,101100.38
2023-01-13T21:24:52.876Z,101127.16
2023-01-13T21:29:46.955Z,101139.75
2023-01-13T21:34:40.948Z,101127.78
2023-01-13T21:39:34.899Z,101138.03
2023-01-13T21:44:45.451Z,101125.88
2023-01-13T21:49:44.770Z,101144.78
2023-01-13T21:54:58.116Z,101160.59
2023-01-13T21:59:51.467Z,101169.59
2023-01-13T22:04:53.064Z,101153.06
2023-01-13T22:09:47.145Z,101157.63
2023-01-13T22:14:41.373Z,101149.66
2023-01-13T22:19:39.592Z,101174.66
2023-01-13T22:24:32.909Z,101171.91
2023-01-13T22:29:25.830Z,101175.50
2023-01-13T22:34:19.789Z,101178.91
2023-01-13T22:39:13.564Z,101168.81
2023-01-13T22:44:07.338Z,101163.94
2023-01-13T22:49:00.779Z,101175.31
2023-01-13T22:53:55.084Z,101181.50
2023-01-13T22:58:49.544Z,101179.59
2023-01-13T23:03:43.070Z,101168.16
2023-01-13T23:08:36.635Z,101174.41
2023-01-13T23:13:29.869Z,101168.25
2023-01-13T23:18:26.480Z,101176.19
2023-01-13T23:23:21.031Z,101157.88
2023-01-13T23:28:14.796Z,101156.50
2023-01-13T23:33:08.032Z,101161.47
2023-01-13T23:38:01.951Z,101148.97
2023-01-13T23:42:55.685Z,101148.13
2023-01-13T23:47:48.816Z,101155.31
2023-01-13T23:52:41.810Z,101138.88
2023-01-13T23:57:35.711Z,101172.09
